Terminal Aerodrome Forecast
Issued by NWS Billings, MT

Home | Current Version | Previous Version | Text Only | Print | Product List | Glossary On
Versions: 1 2 3 4 5 6 7 8 9 10 11 12 13 14 15 16 17 18 19 20 21 22 23 24 25
000
FTUS45 KBYZ 241136
TAFBIL
TAF
KBIL 241136Z 2412/2512 29016KT P6SM VCSH SCT050 OVC090
     FM241500 31021G27KT P6SM VCSH OVC060
     FM250100 27011KT P6SM BKN250
     FM251000 24015KT P6SM VCSH BKN060=

USA.gov is the U.S. government's official web portal to all federal, state and local government web resources and services.